메인 페이지
METAR-TAF:

METAR-TAF

공항 :

라르나카, 키프로스

라르나카 국제공항

위도: 34-53N, 경도: 033-38E, 고도: 2m

현재 날씨관측

예보는 12분 전, 09:30시(UTC)에 발표되었습니다.
남서28kt, 순간 최대 풍속 39kt
온도 19°C
습도 64%
기압 1003 hPa
시정 10km 이상
고도 2500ft 상공 구름 조금
고도 5000ft 상공 구름 보통

METAR: LCLK 180930Z 23028G39KT 9999 FEW025 SCT050 19/12 Q1003 RERA NOSIG

시각: 11:42 (09:42 UTC)

예보

예보는 4 시간 12분 전, 05:30시(UTC)에 발표되었습니다.
예보 대상 시간: 18일 06시부터 19일 06시까지 (UTC)
남서25kt, 순간 최대 풍속 38kt
시정 10km 이상
고도 3000ft 상공 구름 보통
확률 % :
일시적
18일 06시부터 19일 03시까지 (UTC)
시정: 5000m
소나기
확률 30% :
일시적
18일 06시부터 18일 14시까지 (UTC)
시정: 2000m
고도 2000ft 상공 구름 보통, 적란운.
뇌우, 비
전환 중
18일 17시부터 18일 21시까지 (UTC)
북북서12kt

TAF: LCLK 180530Z 1806/1906 22025G38KT 9999 SCT030 PROB TEMPO 1806/1903 5000 SHRA PROB30 TEMPO 1806/1814 2000 TSRA SCT020CB BECMG 1817/1821 34012KT

4,000개 이상의 공항 관측 자료 및 예보 (METAR 및 TAF 보고).

지도상에서 검색 가능한 기상관측소가 노란 점과 빨간 점으로 표시되어 있습니다.

기상관측소 명을 보려면 표시 위로 마우스를 이동하세요.

날씨 관측과 예보를 보려면 클릭하세요.

지도 변경 : 확대하려면 엑스 표시가 있는 녹색 버튼, 축소하려면 빼기 표시가 있는 녹색 버튼, 다음 페이지의 지도를 보려면 녹색 화살표를 클릭하세요.


METAR-TAF: